METAR

TAF

 




Rio de Janeiro / Galeão - Antonio Carlos Jobim, RJ - SBGL


29 de Março de 2015 às 06:00 (UTC)


Tempo:

Céu parcialmente nublado

Temperatura:

24ºC

Umidade Relativa:

89%

Localização:
Ajuste do Altímetro:

1014 hPa

Visibilidade Horizontal Predominante:

5000 m

Direção e Velocidade do Vento:

280° 5,56 Km/h


Observação Meteorológica:

METAR SBGL 290600Z 28003KT 5000 BR BKN020 BKN070 24/22 Q1014=